sensor_id;sensor_type;location;lat;lon;timestamp;P1;durP1;ratioP1;P2;durP2;ratioP2
27333;SDS011;14817;57.104;-2.094;2023-04-24T00:01:02;15.18;;;3.28;;
27333;SDS011;14817;57.104;-2.094;2023-04-24T00:03:28;12.32;;;3.40;;
27333;SDS011;14817;57.104;-2.094;2023-04-24T00:05:56;21.00;;;4.43;;
27333;SDS011;14817;57.104;-2.094;2023-04-24T00:08:23;15.45;;;4.32;;
27333;SDS011;14817;57.104;-2.094;2023-04-24T00:10:50;17.85;;;3.80;;
27333;SDS011;14817;57.104;-2.094;2023-04-24T00:13:18;13.95;;;3.53;;
27333;SDS011;14817;57.104;-2.094;2023-04-24T00:15:45;20.15;;;4.25;;
27333;SDS011;14817;57.104;-2.094;2023-04-24T00:18:12;23.20;;;3.75;;
27333;SDS011;14817;57.104;-2.094;2023-04-24T00:20:39;16.42;;;3.85;;
27333;SDS011;14817;57.104;-2.094;2023-04-24T00:23:06;21.63;;;4.20;;
27333;SDS011;14817;57.104;-2.094;2023-04-24T00:25:33;11.75;;;2.80;;
27333;SDS011;14817;57.104;-2.094;2023-04-24T00:28:00;20.38;;;2.58;;
27333;SDS011;14817;57.104;-2.094;2023-04-24T00:30:26;14.23;;;3.25;;
27333;SDS011;14817;57.104;-2.094;2023-04-24T00:32:54;9.25;;;2.55;;
27333;SDS011;14817;57.104;-2.094;2023-04-24T00:35:22;7.93;;;2.22;;
27333;SDS011;14817;57.104;-2.094;2023-04-24T00:37:49;12.27;;;2.92;;
27333;SDS011;14817;57.104;-2.094;2023-04-24T00:40:16;9.88;;;2.17;;
27333;SDS011;14817;57.104;-2.094;2023-04-24T00:42:43;11.57;;;3.58;;
27333;SDS011;14817;57.104;-2.094;2023-04-24T00:45:11;11.07;;;2.70;;
27333;SDS011;14817;57.104;-2.094;2023-04-24T00:47:38;17.48;;;3.85;;
27333;SDS011;14817;57.104;-2.094;2023-04-24T00:50:06;10.98;;;3.05;;
27333;SDS011;14817;57.104;-2.094;2023-04-24T00:52:33;14.43;;;3.00;;
27333;SDS011;14817;57.104;-2.094;2023-04-24T00:55:01;18.10;;;4.32;;
27333;SDS011;14817;57.104;-2.094;2023-04-24T00:57:27;15.25;;;3.78;;
27333;SDS011;14817;57.104;-2.094;2023-04-24T00:59:54;12.63;;;3.00;;
27333;SDS011;14817;57.104;-2.094;2023-04-24T01:02:21;21.90;;;5.22;;
27333;SDS011;14817;57.104;-2.094;2023-04-24T01:04:50;11.50;;;3.08;;
27333;SDS011;14817;57.104;-2.094;2023-04-24T01:07:20;20.90;;;4.28;;
27333;SDS011;14817;57.104;-2.094;2023-04-24T01:09:50;21.27;;;4.38;;
27333;SDS011;14817;57.104;-2.094;2023-04-24T01:12:18;16.90;;;3.95;;
27333;SDS011;14817;57.104;-2.094;2023-04-24T01:14:46;18.50;;;4.78;;
27333;SDS011;14817;57.104;-2.094;2023-04-24T01:17:14;17.33;;;3.83;;
27333;SDS011;14817;57.104;-2.094;2023-04-24T01:19:43;23.05;;;4.13;;
27333;SDS011;14817;57.104;-2.094;2023-04-24T01:22:16;17.85;;;4.25;;
27333;SDS011;14817;57.104;-2.094;2023-04-24T01:24:43;26.73;;;5.20;;
27333;SDS011;14817;57.104;-2.094;2023-04-24T01:27:11;16.52;;;4.50;;
27333;SDS011;14817;57.104;-2.094;2023-04-24T01:29:38;22.58;;;4.00;;
27333;SDS011;14817;57.104;-2.094;2023-04-24T01:32:08;18.02;;;4.50;;
27333;SDS011;14817;57.104;-2.094;2023-04-24T01:34:35;15.68;;;3.75;;
27333;SDS011;14817;57.104;-2.094;2023-04-24T01:37:03;11.70;;;3.05;;
27333;SDS011;14817;57.104;-2.094;2023-04-24T01:39:31;15.07;;;3.65;;
27333;SDS011;14817;57.104;-2.094;2023-04-24T01:42:00;23.95;;;4.88;;
27333;SDS011;14817;57.104;-2.094;2023-04-24T01:44:28;17.23;;;3.33;;
27333;SDS011;14817;57.104;-2.094;2023-04-24T01:46:55;13.85;;;3.63;;
27333;SDS011;14817;57.104;-2.094;2023-04-24T01:49:22;22.60;;;3.30;;
27333;SDS011;14817;57.104;-2.094;2023-04-24T01:51:49;17.95;;;4.22;;
27333;SDS011;14817;57.104;-2.094;2023-04-24T01:54:16;18.63;;;4.03;;
27333;SDS011;14817;57.104;-2.094;2023-04-24T01:56:43;14.75;;;3.22;;
27333;SDS011;14817;57.104;-2.094;2023-04-24T01:59:10;14.65;;;3.08;;
27333;SDS011;14817;57.104;-2.094;2023-04-24T02:01:38;10.32;;;2.80;;
27333;SDS011;14817;57.104;-2.094;2023-04-24T02:04:05;14.23;;;2.72;;
27333;SDS011;14817;57.104;-2.094;2023-04-24T02:06:34;14.40;;;3.17;;
27333;SDS011;14817;57.104;-2.094;2023-04-24T02:09:01;11.68;;;2.55;;
27333;SDS011;14817;57.104;-2.094;2023-04-24T02:11:29;16.52;;;2.97;;
27333;SDS011;14817;57.104;-2.094;2023-04-24T02:13:56;9.20;;;2.67;;
27333;SDS011;14817;57.104;-2.094;2023-04-24T02:16:24;15.65;;;3.10;;
27333;SDS011;14817;57.104;-2.094;2023-04-24T02:18:51;18.15;;;3.08;;
27333;SDS011;14817;57.104;-2.094;2023-04-24T02:21:18;15.98;;;3.30;;
27333;SDS011;14817;57.104;-2.094;2023-04-24T02:23:45;8.30;;;2.67;;
27333;SDS011;14817;57.104;-2.094;2023-04-24T02:26:12;14.45;;;2.53;;
27333;SDS011;14817;57.104;-2.094;2023-04-24T02:28:40;11.27;;;1.70;;
27333;SDS011;14817;57.104;-2.094;2023-04-24T02:31:07;11.05;;;2.55;;
27333;SDS011;14817;57.104;-2.094;2023-04-24T02:33:34;9.18;;;2.55;;
27333;SDS011;14817;57.104;-2.094;2023-04-24T02:36:02;9.23;;;2.47;;
27333;SDS011;14817;57.104;-2.094;2023-04-24T02:38:29;9.70;;;1.90;;
27333;SDS011;14817;57.104;-2.094;2023-04-24T02:40:56;10.90;;;2.65;;
27333;SDS011;14817;57.104;-2.094;2023-04-24T02:43:25;8.60;;;2.55;;
27333;SDS011;14817;57.104;-2.094;2023-04-24T02:45:52;11.82;;;2.70;;
27333;SDS011;14817;57.104;-2.094;2023-04-24T02:48:18;7.97;;;2.15;;
27333;SDS011;14817;57.104;-2.094;2023-04-24T02:50:47;9.82;;;2.42;;
27333;SDS011;14817;57.104;-2.094;2023-04-24T02:53:14;13.95;;;2.17;;
27333;SDS011;14817;57.104;-2.094;2023-04-24T02:55:40;8.63;;;2.40;;
27333;SDS011;14817;57.104;-2.094;2023-04-24T02:58:07;8.80;;;2.22;;
27333;SDS011;14817;57.104;-2.094;2023-04-24T03:00:34;14.20;;;2.63;;
27333;SDS011;14817;57.104;-2.094;2023-04-24T03:03:01;10.82;;;2.50;;
27333;SDS011;14817;57.104;-2.094;2023-04-24T03:05:28;14.95;;;3.17;;
27333;SDS011;14817;57.104;-2.094;2023-04-24T03:07:54;8.88;;;2.35;;
27333;SDS011;14817;57.104;-2.094;2023-04-24T03:10:21;10.23;;;2.15;;
27333;SDS011;14817;57.104;-2.094;2023-04-24T03:12:50;15.00;;;2.78;;
27333;SDS011;14817;57.104;-2.094;2023-04-24T03:15:17;13.30;;;2.80;;
27333;SDS011;14817;57.104;-2.094;2023-04-24T03:17:44;20.73;;;3.50;;
27333;SDS011;14817;57.104;-2.094;2023-04-24T03:20:11;13.95;;;2.47;;
27333;SDS011;14817;57.104;-2.094;2023-04-24T03:22:38;9.07;;;2.40;;
27333;SDS011;14817;57.104;-2.094;2023-04-24T03:25:07;12.68;;;2.55;;
27333;SDS011;14817;57.104;-2.094;2023-04-24T03:27:36;15.98;;;3.25;;
27333;SDS011;14817;57.104;-2.094;2023-04-24T03:30:33;18.20;;;2.97;;
27333;SDS011;14817;57.104;-2.094;2023-04-24T03:33:01;13.90;;;3.35;;
27333;SDS011;14817;57.104;-2.094;2023-04-24T03:35:32;12.75;;;2.40;;
27333;SDS011;14817;57.104;-2.094;2023-04-24T03:38:02;21.35;;;3.38;;
27333;SDS011;14817;57.104;-2.094;2023-04-24T03:40:55;15.07;;;3.50;;
27333;SDS011;14817;57.104;-2.094;2023-04-24T03:43:37;22.42;;;3.60;;
27333;SDS011;14817;57.104;-2.094;2023-04-24T03:46:05;21.63;;;4.95;;
27333;SDS011;14817;57.104;-2.094;2023-04-24T03:48:35;11.70;;;2.72;;
27333;SDS011;14817;57.104;-2.094;2023-04-24T03:51:02;18.33;;;4.22;;
27333;SDS011;14817;57.104;-2.094;2023-04-24T03:53:30;12.27;;;3.33;;
27333;SDS011;14817;57.104;-2.094;2023-04-24T03:55:58;17.60;;;3.72;;
27333;SDS011;14817;57.104;-2.094;2023-04-24T03:58:25;19.55;;;4.20;;
27333;SDS011;14817;57.104;-2.094;2023-04-24T04:00:54;19.52;;;4.38;;
27333;SDS011;14817;57.104;-2.094;2023-04-24T04:03:38;15.10;;;3.10;;
27333;SDS011;14817;57.104;-2.094;2023-04-24T04:06:06;22.63;;;3.20;;
27333;SDS011;14817;57.104;-2.094;2023-04-24T04:08:33;12.63;;;3.45;;
27333;SDS011;14817;57.104;-2.094;2023-04-24T04:11:01;18.20;;;2.65;;
27333;SDS011;14817;57.104;-2.094;2023-04-24T04:13:30;11.68;;;2.47;;
27333;SDS011;14817;57.104;-2.094;2023-04-24T04:15:58;8.27;;;2.53;;
27333;SDS011;14817;57.104;-2.094;2023-04-24T04:18:24;19.90;;;2.80;;
27333;SDS011;14817;57.104;-2.094;2023-04-24T04:20:51;11.20;;;2.47;;
27333;SDS011;14817;57.104;-2.094;2023-04-24T04:23:18;16.02;;;2.55;;
27333;SDS011;14817;57.104;-2.094;2023-04-24T04:26:08;9.60;;;2.33;;
27333;SDS011;14817;57.104;-2.094;2023-04-24T04:28:47;8.73;;;2.17;;
27333;SDS011;14817;57.104;-2.094;2023-04-24T04:31:15;17.27;;;2.83;;
27333;SDS011;14817;57.104;-2.094;2023-04-24T04:33:43;18.25;;;2.58;;
27333;SDS011;14817;57.104;-2.094;2023-04-24T04:36:10;14.32;;;2.72;;
27333;SDS011;14817;57.104;-2.094;2023-04-24T04:38:43;14.32;;;3.17;;
27333;SDS011;14817;57.104;-2.094;2023-04-24T04:41:22;10.30;;;1.70;;
27333;SDS011;14817;57.104;-2.094;2023-04-24T04:43:48;15.02;;;2.08;;
27333;SDS011;14817;57.104;-2.094;2023-04-24T04:46:16;8.60;;;1.88;;
27333;SDS011;14817;57.104;-2.094;2023-04-24T04:48:56;6.22;;;1.90;;
27333;SDS011;14817;57.104;-2.094;2023-04-24T04:51:23;7.05;;;1.98;;
27333;SDS011;14817;57.104;-2.094;2023-04-24T04:53:50;5.75;;;1.95;;
27333;SDS011;14817;57.104;-2.094;2023-04-24T04:56:17;4.72;;;1.42;;
27333;SDS011;14817;57.104;-2.094;2023-04-24T04:58:45;9.18;;;2.22;;
27333;SDS011;14817;57.104;-2.094;2023-04-24T05:01:14;7.07;;;1.55;;
27333;SDS011;14817;57.104;-2.094;2023-04-24T05:03:44;11.07;;;1.88;;
27333;SDS011;14817;57.104;-2.094;2023-04-24T05:06:18;7.90;;;2.15;;
27333;SDS011;14817;57.104;-2.094;2023-04-24T05:08:45;7.47;;;1.75;;
27333;SDS011;14817;57.104;-2.094;2023-04-24T05:11:35;9.90;;;2.08;;
27333;SDS011;14817;57.104;-2.094;2023-04-24T05:14:02;10.35;;;1.58;;
27333;SDS011;14817;57.104;-2.094;2023-04-24T05:16:36;9.38;;;1.67;;
27333;SDS011;14817;57.104;-2.094;2023-04-24T05:19:06;5.57;;;1.55;;
27333;SDS011;14817;57.104;-2.094;2023-04-24T05:21:37;5.38;;;1.80;;
27333;SDS011;14817;57.104;-2.094;2023-04-24T05:24:06;7.97;;;2.15;;
27333;SDS011;14817;57.104;-2.094;2023-04-24T05:27:02;3.58;;;1.40;;
27333;SDS011;14817;57.104;-2.094;2023-04-24T05:29:40;8.88;;;1.90;;
27333;SDS011;14817;57.104;-2.094;2023-04-24T05:32:08;5.83;;;1.23;;
27333;SDS011;14817;57.104;-2.094;2023-04-24T05:34:35;9.40;;;1.60;;
27333;SDS011;14817;57.104;-2.094;2023-04-24T05:37:02;10.57;;;1.75;;
27333;SDS011;14817;57.104;-2.094;2023-04-24T05:39:34;10.13;;;3.10;;
27333;SDS011;14817;57.104;-2.094;2023-04-24T05:42:02;12.18;;;2.42;;
27333;SDS011;14817;57.104;-2.094;2023-04-24T05:44:30;12.43;;;2.03;;
27333;SDS011;14817;57.104;-2.094;2023-04-24T05:46:58;7.70;;;2.15;;
27333;SDS011;14817;57.104;-2.094;2023-04-24T05:49:26;9.93;;;2.20;;
27333;SDS011;14817;57.104;-2.094;2023-04-24T05:51:53;10.25;;;2.60;;
27333;SDS011;14817;57.104;-2.094;2023-04-24T05:54:21;11.40;;;2.58;;
27333;SDS011;14817;57.104;-2.094;2023-04-24T05:56:48;12.70;;;2.90;;
27333;SDS011;14817;57.104;-2.094;2023-04-24T05:59:24;7.97;;;2.13;;
27333;SDS011;14817;57.104;-2.094;2023-04-24T06:01:52;11.15;;;2.65;;
27333;SDS011;14817;57.104;-2.094;2023-04-24T06:04:20;11.20;;;1.80;;
27333;SDS011;14817;57.104;-2.094;2023-04-24T06:06:50;7.45;;;1.75;;
27333;SDS011;14817;57.104;-2.094;2023-04-24T06:11:49;11.95;;;2.65;;
27333;SDS011;14817;57.104;-2.094;2023-04-24T06:14:23;7.03;;;1.80;;
27333;SDS011;14817;57.104;-2.094;2023-04-24T06:17:12;11.70;;;1.85;;
27333;SDS011;14817;57.104;-2.094;2023-04-24T06:19:40;9.38;;;2.13;;
27333;SDS011;14817;57.104;-2.094;2023-04-24T06:22:07;13.48;;;2.35;;
27333;SDS011;14817;57.104;-2.094;2023-04-24T06:24:36;13.32;;;2.40;;
27333;SDS011;14817;57.104;-2.094;2023-04-24T06:27:03;11.77;;;1.90;;
27333;SDS011;14817;57.104;-2.094;2023-04-24T06:29:30;13.18;;;2.30;;
27333;SDS011;14817;57.104;-2.094;2023-04-24T06:31:57;13.07;;;2.08;;
27333;SDS011;14817;57.104;-2.094;2023-04-24T06:34:23;19.67;;;3.45;;
27333;SDS011;14817;57.104;-2.094;2023-04-24T06:36:50;13.05;;;3.35;;
27333;SDS011;14817;57.104;-2.094;2023-04-24T06:39:17;16.50;;;3.42;;
27333;SDS011;14817;57.104;-2.094;2023-04-24T06:41:44;13.50;;;2.92;;
27333;SDS011;14817;57.104;-2.094;2023-04-24T06:44:18;18.10;;;3.22;;
27333;SDS011;14817;57.104;-2.094;2023-04-24T06:46:44;11.90;;;1.85;;
27333;SDS011;14817;57.104;-2.094;2023-04-24T06:49:11;12.65;;;2.63;;
27333;SDS011;14817;57.104;-2.094;2023-04-24T06:51:38;7.85;;;1.88;;
27333;SDS011;14817;57.104;-2.094;2023-04-24T06:54:04;13.55;;;2.22;;
27333;SDS011;14817;57.104;-2.094;2023-04-24T06:56:31;11.68;;;2.08;;
27333;SDS011;14817;57.104;-2.094;2023-04-24T06:59:00;9.65;;;2.22;;
27333;SDS011;14817;57.104;-2.094;2023-04-24T07:01:27;15.30;;;2.20;;
27333;SDS011;14817;57.104;-2.094;2023-04-24T07:03:54;8.85;;;2.30;;
27333;SDS011;14817;57.104;-2.094;2023-04-24T07:06:21;12.02;;;2.60;;
27333;SDS011;14817;57.104;-2.094;2023-04-24T07:08:50;12.05;;;2.40;;
27333;SDS011;14817;57.104;-2.094;2023-04-24T07:11:17;13.48;;;2.35;;
27333;SDS011;14817;57.104;-2.094;2023-04-24T07:13:44;7.85;;;2.13;;
27333;SDS011;14817;57.104;-2.094;2023-04-24T07:16:10;13.90;;;2.33;;
27333;SDS011;14817;57.104;-2.094;2023-04-24T07:18:38;13.23;;;2.20;;
27333;SDS011;14817;57.104;-2.094;2023-04-24T07:21:06;16.88;;;2.65;;
27333;SDS011;14817;57.104;-2.094;2023-04-24T07:23:33;12.63;;;2.58;;
27333;SDS011;14817;57.104;-2.094;2023-04-24T07:26:00;9.82;;;2.67;;
27333;SDS011;14817;57.104;-2.094;2023-04-24T07:28:26;13.75;;;2.75;;
27333;SDS011;14817;57.104;-2.094;2023-04-24T07:30:57;17.00;;;2.87;;
27333;SDS011;14817;57.104;-2.094;2023-04-24T07:33:25;13.45;;;2.67;;
27333;SDS011;14817;57.104;-2.094;2023-04-24T07:35:52;13.68;;;2.33;;
27333;SDS011;14817;57.104;-2.094;2023-04-24T07:38:19;20.02;;;3.00;;
27333;SDS011;14817;57.104;-2.094;2023-04-24T07:40:49;14.63;;;2.85;;
27333;SDS011;14817;57.104;-2.094;2023-04-24T07:43:16;10.73;;;3.08;;
27333;SDS011;14817;57.104;-2.094;2023-04-24T07:45:43;14.40;;;2.67;;
27333;SDS011;14817;57.104;-2.094;2023-04-24T07:48:10;13.95;;;2.55;;
27333;SDS011;14817;57.104;-2.094;2023-04-24T07:50:37;14.45;;;2.92;;
27333;SDS011;14817;57.104;-2.094;2023-04-24T07:53:03;14.23;;;2.80;;
27333;SDS011;14817;57.104;-2.094;2023-04-24T07:55:30;11.85;;;3.08;;
27333;SDS011;14817;57.104;-2.094;2023-04-24T07:57:57;15.00;;;2.78;;
27333;SDS011;14817;57.104;-2.094;2023-04-24T08:00:24;18.65;;;3.25;;
27333;SDS011;14817;57.104;-2.094;2023-04-24T08:02:51;13.18;;;2.67;;
27333;SDS011;14817;57.104;-2.094;2023-04-24T08:05:18;11.32;;;2.30;;
27333;SDS011;14817;57.104;-2.094;2023-04-24T08:07:45;6.88;;;2.08;;
27333;SDS011;14817;57.104;-2.094;2023-04-24T08:10:15;12.38;;;2.78;;
27333;SDS011;14817;57.104;-2.094;2023-04-24T08:12:41;10.38;;;2.78;;
27333;SDS011;14817;57.104;-2.094;2023-04-24T08:15:08;12.88;;;3.17;;
27333;SDS011;14817;57.104;-2.094;2023-04-24T08:17:35;17.58;;;3.20;;
27333;SDS011;14817;57.104;-2.094;2023-04-24T08:20:03;15.57;;;3.47;;
27333;SDS011;14817;57.104;-2.094;2023-04-24T08:22:31;12.00;;;3.47;;
27333;SDS011;14817;57.104;-2.094;2023-04-24T08:24:59;18.20;;;2.65;;
27333;SDS011;14817;57.104;-2.094;2023-04-24T08:27:26;15.35;;;2.97;;
27333;SDS011;14817;57.104;-2.094;2023-04-24T08:29:53;14.38;;;3.50;;
27333;SDS011;14817;57.104;-2.094;2023-04-24T08:32:20;21.90;;;3.17;;
27333;SDS011;14817;57.104;-2.094;2023-04-24T08:34:47;18.75;;;3.20;;
27333;SDS011;14817;57.104;-2.094;2023-04-24T08:37:15;18.67;;;3.40;;
27333;SDS011;14817;57.104;-2.094;2023-04-24T08:39:42;18.85;;;2.53;;
27333;SDS011;14817;57.104;-2.094;2023-04-24T08:42:09;13.85;;;2.40;;
27333;SDS011;14817;57.104;-2.094;2023-04-24T08:44:37;11.20;;;2.47;;
27333;SDS011;14817;57.104;-2.094;2023-04-24T08:47:05;19.63;;;2.65;;
27333;SDS011;14817;57.104;-2.094;2023-04-24T08:49:33;13.45;;;3.15;;
27333;SDS011;14817;57.104;-2.094;2023-04-24T08:52:03;21.83;;;3.25;;
27333;SDS011;14817;57.104;-2.094;2023-04-24T08:54:31;12.77;;;2.78;;
27333;SDS011;14817;57.104;-2.094;2023-04-24T08:57:00;21.88;;;3.92;;
27333;SDS011;14817;57.104;-2.094;2023-04-24T08:59:27;16.52;;;3.92;;
27333;SDS011;14817;57.104;-2.094;2023-04-24T09:01:55;20.73;;;3.85;;
27333;SDS011;14817;57.104;-2.094;2023-04-24T09:04:23;15.32;;;2.63;;
27333;SDS011;14817;57.104;-2.094;2023-04-24T09:06:55;16.25;;;2.30;;
27333;SDS011;14817;57.104;-2.094;2023-04-24T09:09:24;11.90;;;1.83;;
27333;SDS011;14817;57.104;-2.094;2023-04-24T09:11:51;9.00;;;2.30;;
27333;SDS011;14817;57.104;-2.094;2023-04-24T09:14:21;14.00;;;2.50;;
27333;SDS011;14817;57.104;-2.094;2023-04-24T09:16:50;4.72;;;1.67;;
27333;SDS011;14817;57.104;-2.094;2023-04-24T09:19:17;15.05;;;2.33;;
27333;SDS011;14817;57.104;-2.094;2023-04-24T09:21:47;12.32;;;2.60;;
27333;SDS011;14817;57.104;-2.094;2023-04-24T09:24:17;16.48;;;3.03;;
27333;SDS011;14817;57.104;-2.094;2023-04-24T09:26:49;13.70;;;3.03;;
27333;SDS011;14817;57.104;-2.094;2023-04-24T09:29:27;10.80;;;2.30;;
27333;SDS011;14817;57.104;-2.094;2023-04-24T09:31:54;18.92;;;2.95;;
27333;SDS011;14817;57.104;-2.094;2023-04-24T09:34:22;16.77;;;4.18;;
27333;SDS011;14817;57.104;-2.094;2023-04-24T09:36:50;16.80;;;2.88;;
27333;SDS011;14817;57.104;-2.094;2023-04-24T09:39:18;14.45;;;2.65;;
27333;SDS011;14817;57.104;-2.094;2023-04-24T09:41:49;16.00;;;3.38;;
27333;SDS011;14817;57.104;-2.094;2023-04-24T09:44:17;11.35;;;2.80;;
27333;SDS011;14817;57.104;-2.094;2023-04-24T09:46:51;9.82;;;2.00;;
27333;SDS011;14817;57.104;-2.094;2023-04-24T09:49:23;18.13;;;3.45;;
27333;SDS011;14817;57.104;-2.094;2023-04-24T09:52:07;13.68;;;2.55;;
27333;SDS011;14817;57.104;-2.094;2023-04-24T09:54:36;15.55;;;2.63;;
27333;SDS011;14817;57.104;-2.094;2023-04-24T09:57:04;10.40;;;1.85;;
27333;SDS011;14817;57.104;-2.094;2023-04-24T09:59:31;11.55;;;1.75;;
27333;SDS011;14817;57.104;-2.094;2023-04-24T10:02:00;8.85;;;1.83;;
27333;SDS011;14817;57.104;-2.094;2023-04-24T10:04:28;16.73;;;2.53;;
27333;SDS011;14817;57.104;-2.094;2023-04-24T10:06:56;10.85;;;2.40;;
27333;SDS011;14817;57.104;-2.094;2023-04-24T10:09:24;12.05;;;2.05;;
27333;SDS011;14817;57.104;-2.094;2023-04-24T10:11:52;10.15;;;2.08;;
27333;SDS011;14817;57.104;-2.094;2023-04-24T10:14:22;8.18;;;1.75;;
27333;SDS011;14817;57.104;-2.094;2023-04-24T10:16:54;9.60;;;2.65;;
27333;SDS011;14817;57.104;-2.094;2023-04-24T10:19:22;13.98;;;2.40;;
27333;SDS011;14817;57.104;-2.094;2023-04-24T10:21:52;8.35;;;1.70;;
27333;SDS011;14817;57.104;-2.094;2023-04-24T10:24:20;6.72;;;1.80;;
27333;SDS011;14817;57.104;-2.094;2023-04-24T10:26:47;11.32;;;2.10;;
27333;SDS011;14817;57.104;-2.094;2023-04-24T10:29:16;6.82;;;1.83;;
27333;SDS011;14817;57.104;-2.094;2023-04-24T10:31:44;8.45;;;1.98;;
27333;SDS011;14817;57.104;-2.094;2023-04-24T10:34:15;6.70;;;2.15;;
27333;SDS011;14817;57.104;-2.094;2023-04-24T10:36:48;11.18;;;1.60;;
27333;SDS011;14817;57.104;-2.094;2023-04-24T10:39:19;10.88;;;1.65;;
27333;SDS011;14817;57.104;-2.094;2023-04-24T10:41:53;3.70;;;1.33;;
27333;SDS011;14817;57.104;-2.094;2023-04-24T10:44:23;5.80;;;1.47;;
27333;SDS011;14817;57.104;-2.094;2023-04-24T10:46:54;5.95;;;1.30;;
27333;SDS011;14817;57.104;-2.094;2023-04-24T10:49:28;2.38;;;0.95;;
27333;SDS011;14817;57.104;-2.094;2023-04-24T10:52:00;3.30;;;0.98;;
27333;SDS011;14817;57.104;-2.094;2023-04-24T10:54:29;3.28;;;1.00;;
27333;SDS011;14817;57.104;-2.094;2023-04-24T10:59:46;4.47;;;1.35;;
27333;SDS011;14817;57.104;-2.094;2023-04-24T11:02:15;5.20;;;1.35;;
27333;SDS011;14817;57.104;-2.094;2023-04-24T11:04:42;7.45;;;1.60;;
27333;SDS011;14817;57.104;-2.094;2023-04-24T11:07:10;5.75;;;1.30;;
27333;SDS011;14817;57.104;-2.094;2023-04-24T11:09:38;7.63;;;1.20;;
27333;SDS011;14817;57.104;-2.094;2023-04-24T11:12:07;4.55;;;0.98;;
27333;SDS011;14817;57.104;-2.094;2023-04-24T11:20:07;8.30;;;2.25;;
27333;SDS011;14817;57.104;-2.094;2023-04-24T11:22:53;5.25;;;1.40;;
27333;SDS011;14817;57.104;-2.094;2023-04-24T11:25:21;3.38;;;0.93;;
27333;SDS011;14817;57.104;-2.094;2023-04-24T11:28:02;4.60;;;1.15;;
27333;SDS011;14817;57.104;-2.094;2023-04-24T11:30:31;4.95;;;1.60;;
27333;SDS011;14817;57.104;-2.094;2023-04-24T11:33:03;6.55;;;1.48;;
27333;SDS011;14817;57.104;-2.094;2023-04-24T11:35:34;6.45;;;1.20;;
27333;SDS011;14817;57.104;-2.094;2023-04-24T11:38:05;6.15;;;1.20;;
27333;SDS011;14817;57.104;-2.094;2023-04-24T11:40:49;4.55;;;0.90;;
27333;SDS011;14817;57.104;-2.094;2023-04-24T11:43:16;6.95;;;1.30;;
27333;SDS011;14817;57.104;-2.094;2023-04-24T11:45:49;7.10;;;1.50;;
27333;SDS011;14817;57.104;-2.094;2023-04-24T11:48:19;6.18;;;1.20;;
27333;SDS011;14817;57.104;-2.094;2023-04-24T11:50:49;7.85;;;1.80;;
27333;SDS011;14817;57.104;-2.094;2023-04-24T11:53:18;5.57;;;1.25;;
27333;SDS011;14817;57.104;-2.094;2023-04-24T11:55:46;1.83;;;0.80;;
27333;SDS011;14817;57.104;-2.094;2023-04-24T11:58:13;5.88;;;1.45;;
27333;SDS011;14817;57.104;-2.094;2023-04-24T12:00:40;5.53;;;1.35;;
27333;SDS011;14817;57.104;-2.094;2023-04-24T12:03:10;4.75;;;1.15;;
27333;SDS011;14817;57.104;-2.094;2023-04-24T12:05:38;1.45;;;0.50;;
27333;SDS011;14817;57.104;-2.094;2023-04-24T12:08:06;2.78;;;0.75;;
27333;SDS011;14817;57.104;-2.094;2023-04-24T12:10:33;3.67;;;0.77;;
27333;SDS011;14817;57.104;-2.094;2023-04-24T12:13:01;8.05;;;1.48;;
27333;SDS011;14817;57.104;-2.094;2023-04-24T12:15:28;6.72;;;1.08;;
27333;SDS011;14817;57.104;-2.094;2023-04-24T12:17:55;9.02;;;1.20;;
27333;SDS011;14817;57.104;-2.094;2023-04-24T12:20:30;2.42;;;0.70;;
27333;SDS011;14817;57.104;-2.094;2023-04-24T12:22:58;3.95;;;1.17;;
27333;SDS011;14817;57.104;-2.094;2023-04-24T12:25:27;12.23;;;1.63;;
27333;SDS011;14817;57.104;-2.094;2023-04-24T12:28:08;6.47;;;1.30;;
27333;SDS011;14817;57.104;-2.094;2023-04-24T12:30:44;7.90;;;1.00;;
27333;SDS011;14817;57.104;-2.094;2023-04-24T12:33:18;8.43;;;1.42;;
27333;SDS011;14817;57.104;-2.094;2023-04-24T12:35:47;5.35;;;1.27;;
27333;SDS011;14817;57.104;-2.094;2023-04-24T12:38:15;7.03;;;1.60;;
27333;SDS011;14817;57.104;-2.094;2023-04-24T12:40:44;3.42;;;1.20;;
27333;SDS011;14817;57.104;-2.094;2023-04-24T12:43:14;6.78;;;1.23;;
27333;SDS011;14817;57.104;-2.094;2023-04-24T12:45:43;7.28;;;1.73;;
27333;SDS011;14817;57.104;-2.094;2023-04-24T12:48:11;10.23;;;1.45;;
27333;SDS011;14817;57.104;-2.094;2023-04-24T12:50:40;7.85;;;1.30;;
27333;SDS011;14817;57.104;-2.094;2023-04-24T12:53:11;6.35;;;1.63;;
27333;SDS011;14817;57.104;-2.094;2023-04-24T12:55:38;8.80;;;1.40;;
27333;SDS011;14817;57.104;-2.094;2023-04-24T12:58:04;7.68;;;1.48;;
27333;SDS011;14817;57.104;-2.094;2023-04-24T13:00:31;9.85;;;1.75;;
27333;SDS011;14817;57.104;-2.094;2023-04-24T13:02:59;7.13;;;1.38;;
27333;SDS011;14817;57.104;-2.094;2023-04-24T13:05:26;8.70;;;2.28;;
27333;SDS011;14817;57.104;-2.094;2023-04-24T13:07:53;6.60;;;1.45;;
27333;SDS011;14817;57.104;-2.094;2023-04-24T13:10:20;4.35;;;1.58;;
27333;SDS011;14817;57.104;-2.094;2023-04-24T13:12:46;6.78;;;1.52;;
27333;SDS011;14817;57.104;-2.094;2023-04-24T13:15:13;3.72;;;1.10;;
27333;SDS011;14817;57.104;-2.094;2023-04-24T13:17:40;4.38;;;0.98;;
27333;SDS011;14817;57.104;-2.094;2023-04-24T13:20:07;6.78;;;1.85;;
27333;SDS011;14817;57.104;-2.094;2023-04-24T13:22:34;7.40;;;1.65;;
27333;SDS011;14817;57.104;-2.094;2023-04-24T13:25:02;5.22;;;0.95;;
27333;SDS011;14817;57.104;-2.094;2023-04-24T13:27:32;3.50;;;0.85;;
27333;SDS011;14817;57.104;-2.094;2023-04-24T13:30:00;4.82;;;1.00;;
27333;SDS011;14817;57.104;-2.094;2023-04-24T13:32:27;4.95;;;0.90;;
27333;SDS011;14817;57.104;-2.094;2023-04-24T13:34:56;3.85;;;0.73;;
27333;SDS011;14817;57.104;-2.094;2023-04-24T13:37:23;4.40;;;1.00;;
27333;SDS011;14817;57.104;-2.094;2023-04-24T13:39:49;2.60;;;0.65;;
27333;SDS011;14817;57.104;-2.094;2023-04-24T13:42:17;2.25;;;0.68;;
27333;SDS011;14817;57.104;-2.094;2023-04-24T13:44:45;3.67;;;0.80;;
27333;SDS011;14817;57.104;-2.094;2023-04-24T13:47:11;2.35;;;0.60;;
27333;SDS011;14817;57.104;-2.094;2023-04-24T13:49:38;0.90;;;0.40;;
27333;SDS011;14817;57.104;-2.094;2023-04-24T13:52:05;7.07;;;1.10;;
27333;SDS011;14817;57.104;-2.094;2023-04-24T13:54:32;2.80;;;0.73;;
27333;SDS011;14817;57.104;-2.094;2023-04-24T13:56:59;3.55;;;1.00;;
27333;SDS011;14817;57.104;-2.094;2023-04-24T13:59:26;4.13;;;0.60;;
27333;SDS011;14817;57.104;-2.094;2023-04-24T14:01:53;4.70;;;0.85;;
27333;SDS011;14817;57.104;-2.094;2023-04-24T14:04:21;3.65;;;0.80;;
27333;SDS011;14817;57.104;-2.094;2023-04-24T14:06:48;4.95;;;1.27;;
27333;SDS011;14817;57.104;-2.094;2023-04-24T14:09:15;7.05;;;0.88;;
27333;SDS011;14817;57.104;-2.094;2023-04-24T14:11:42;4.13;;;1.00;;
27333;SDS011;14817;57.104;-2.094;2023-04-24T14:14:09;6.90;;;1.52;;
27333;SDS011;14817;57.104;-2.094;2023-04-24T14:16:35;4.18;;;0.88;;
27333;SDS011;14817;57.104;-2.094;2023-04-24T14:19:02;3.55;;;0.70;;
27333;SDS011;14817;57.104;-2.094;2023-04-24T14:21:29;4.10;;;1.13;;
27333;SDS011;14817;57.104;-2.094;2023-04-24T14:23:56;6.47;;;1.13;;
27333;SDS011;14817;57.104;-2.094;2023-04-24T14:26:23;9.57;;;0.90;;
27333;SDS011;14817;57.104;-2.094;2023-04-24T14:28:50;9.52;;;1.55;;
27333;SDS011;14817;57.104;-2.094;2023-04-24T14:31:29;4.43;;;1.15;;
27333;SDS011;14817;57.104;-2.094;2023-04-24T14:33:55;6.25;;;1.20;;
27333;SDS011;14817;57.104;-2.094;2023-04-24T14:36:23;5.65;;;1.13;;
27333;SDS011;14817;57.104;-2.094;2023-04-24T14:38:50;9.77;;;1.60;;
27333;SDS011;14817;57.104;-2.094;2023-04-24T14:41:17;6.13;;;1.17;;
27333;SDS011;14817;57.104;-2.094;2023-04-24T14:43:44;9.32;;;1.98;;
27333;SDS011;14817;57.104;-2.094;2023-04-24T14:46:11;2.85;;;0.60;;